sensor_id;sensor_type;location;lat;lon;timestamp;P1;durP1;ratioP1;P2;durP2;ratioP2
55573;SDS011;57533;39.460;-0.372;2022-10-31T00:00:13;15.57;;;10.38;;
55573;SDS011;57533;39.460;-0.372;2022-10-31T00:02:38;18.42;;;10.20;;
55573;SDS011;57533;39.460;-0.372;2022-10-31T00:05:03;16.50;;;10.35;;
55573;SDS011;57533;39.460;-0.372;2022-10-31T00:07:29;21.23;;;10.07;;
55573;SDS011;57533;39.460;-0.372;2022-10-31T00:09:54;21.17;;;10.48;;
55573;SDS011;57533;39.460;-0.372;2022-10-31T00:12:19;21.58;;;11.50;;
55573;SDS011;57533;39.460;-0.372;2022-10-31T00:14:45;21.90;;;11.05;;
55573;SDS011;57533;39.460;-0.372;2022-10-31T00:17:10;23.15;;;11.35;;
55573;SDS011;57533;39.460;-0.372;2022-10-31T00:19:35;19.52;;;11.63;;
55573;SDS011;57533;39.460;-0.372;2022-10-31T00:22:01;18.17;;;11.38;;
55573;SDS011;57533;39.460;-0.372;2022-10-31T00:24:26;15.20;;;10.75;;
55573;SDS011;57533;39.460;-0.372;2022-10-31T00:26:51;20.58;;;10.20;;
55573;SDS011;57533;39.460;-0.372;2022-10-31T00:29:16;23.88;;;11.38;;
55573;SDS011;57533;39.460;-0.372;2022-10-31T00:31:42;16.20;;;10.55;;
55573;SDS011;57533;39.460;-0.372;2022-10-31T00:34:07;17.58;;;10.48;;
55573;SDS011;57533;39.460;-0.372;2022-10-31T00:36:32;16.45;;;10.10;;
55573;SDS011;57533;39.460;-0.372;2022-10-31T00:38:58;19.10;;;10.73;;
55573;SDS011;57533;39.460;-0.372;2022-10-31T00:41:23;22.88;;;11.55;;
55573;SDS011;57533;39.460;-0.372;2022-10-31T00:43:49;16.20;;;10.55;;
55573;SDS011;57533;39.460;-0.372;2022-10-31T00:46:14;19.88;;;10.95;;
55573;SDS011;57533;39.460;-0.372;2022-10-31T00:48:39;21.42;;;11.50;;
55573;SDS011;57533;39.460;-0.372;2022-10-31T00:51:05;21.50;;;11.20;;
55573;SDS011;57533;39.460;-0.372;2022-10-31T00:53:30;20.63;;;10.63;;
55573;SDS011;57533;39.460;-0.372;2022-10-31T00:55:55;13.85;;;10.55;;
55573;SDS011;57533;39.460;-0.372;2022-10-31T00:58:21;17.27;;;10.98;;
55573;SDS011;57533;39.460;-0.372;2022-10-31T01:00:47;20.63;;;11.02;;
55573;SDS011;57533;39.460;-0.372;2022-10-31T01:03:19;21.00;;;11.10;;
55573;SDS011;57533;39.460;-0.372;2022-10-31T01:05:45;23.23;;;10.40;;
55573;SDS011;57533;39.460;-0.372;2022-10-31T01:08:10;13.73;;;10.32;;
55573;SDS011;57533;39.460;-0.372;2022-10-31T01:10:35;14.95;;;10.18;;
55573;SDS011;57533;39.460;-0.372;2022-10-31T01:13:01;18.33;;;10.85;;
55573;SDS011;57533;39.460;-0.372;2022-10-31T01:15:26;16.58;;;10.40;;
55573;SDS011;57533;39.460;-0.372;2022-10-31T01:17:51;22.60;;;11.45;;
55573;SDS011;57533;39.460;-0.372;2022-10-31T01:20:17;19.10;;;10.68;;
55573;SDS011;57533;39.460;-0.372;2022-10-31T01:22:42;17.33;;;10.50;;
55573;SDS011;57533;39.460;-0.372;2022-10-31T01:25:08;15.57;;;10.35;;
55573;SDS011;57533;39.460;-0.372;2022-10-31T01:27:34;13.80;;;9.98;;
55573;SDS011;57533;39.460;-0.372;2022-10-31T01:29:59;20.63;;;10.75;;
55573;SDS011;57533;39.460;-0.372;2022-10-31T01:32:24;13.88;;;10.60;;
55573;SDS011;57533;39.460;-0.372;2022-10-31T01:34:50;19.48;;;10.30;;
55573;SDS011;57533;39.460;-0.372;2022-10-31T01:37:15;18.70;;;10.13;;
55573;SDS011;57533;39.460;-0.372;2022-10-31T01:39:40;19.27;;;10.45;;
55573;SDS011;57533;39.460;-0.372;2022-10-31T01:42:06;17.73;;;9.05;;
55573;SDS011;57533;39.460;-0.372;2022-10-31T01:46:58;18.05;;;10.63;;
55573;SDS011;57533;39.460;-0.372;2022-10-31T01:49:41;26.10;;;11.32;;
55573;SDS011;57533;39.460;-0.372;2022-10-31T01:54:34;16.92;;;10.95;;
55573;SDS011;57533;39.460;-0.372;2022-10-31T01:57:00;17.42;;;11.18;;
55573;SDS011;57533;39.460;-0.372;2022-10-31T01:59:27;20.10;;;11.45;;
55573;SDS011;57533;39.460;-0.372;2022-10-31T02:01:53;16.77;;;11.35;;
55573;SDS011;57533;39.460;-0.372;2022-10-31T02:04:19;14.68;;;9.40;;
55573;SDS011;57533;39.460;-0.372;2022-10-31T02:09:09;17.05;;;11.27;;
55573;SDS011;57533;39.460;-0.372;2022-10-31T02:11:35;18.70;;;11.27;;
55573;SDS011;57533;39.460;-0.372;2022-10-31T02:14:02;14.45;;;11.20;;
55573;SDS011;57533;39.460;-0.372;2022-10-31T02:16:28;19.92;;;10.73;;
55573;SDS011;57533;39.460;-0.372;2022-10-31T02:18:53;14.77;;;10.60;;
55573;SDS011;57533;39.460;-0.372;2022-10-31T02:21:21;18.88;;;11.68;;
55573;SDS011;57533;39.460;-0.372;2022-10-31T02:30:03;19.58;;;11.43;;
55573;SDS011;57533;39.460;-0.372;2022-10-31T02:34:26;23.35;;;12.95;;
55573;SDS011;57533;39.460;-0.372;2022-10-31T02:37:09;23.75;;;12.98;;
55573;SDS011;57533;39.460;-0.372;2022-10-31T02:45:04;21.25;;;12.57;;
55573;SDS011;57533;39.460;-0.372;2022-10-31T02:47:26;19.10;;;12.63;;
55573;SDS011;57533;39.460;-0.372;2022-10-31T02:52:21;24.38;;;13.48;;
55573;SDS011;57533;39.460;-0.372;2022-10-31T02:54:47;26.83;;;14.63;;
55573;SDS011;57533;39.460;-0.372;2022-10-31T02:57:12;26.33;;;14.65;;
55573;SDS011;57533;39.460;-0.372;2022-10-31T02:59:40;29.55;;;14.43;;
55573;SDS011;57533;39.460;-0.372;2022-10-31T03:04:48;24.92;;;14.35;;
55573;SDS011;57533;39.460;-0.372;2022-10-31T03:17:55;24.05;;;14.60;;
55573;SDS011;57533;39.460;-0.372;2022-10-31T03:20:24;23.17;;;13.88;;
55573;SDS011;57533;39.460;-0.372;2022-10-31T03:22:51;21.58;;;13.27;;
55573;SDS011;57533;39.460;-0.372;2022-10-31T03:25:17;18.73;;;13.52;;
55573;SDS011;57533;39.460;-0.372;2022-10-31T03:27:43;23.67;;;13.82;;
55573;SDS011;57533;39.460;-0.372;2022-10-31T03:30:09;22.73;;;12.95;;
55573;SDS011;57533;39.460;-0.372;2022-10-31T03:32:36;21.60;;;12.52;;
55573;SDS011;57533;39.460;-0.372;2022-10-31T03:35:03;18.88;;;12.60;;
55573;SDS011;57533;39.460;-0.372;2022-10-31T03:37:30;22.25;;;13.43;;
55573;SDS011;57533;39.460;-0.372;2022-10-31T03:39:57;17.58;;;13.02;;
55573;SDS011;57533;39.460;-0.372;2022-10-31T03:42:24;22.17;;;13.52;;
55573;SDS011;57533;39.460;-0.372;2022-10-31T03:45:11;22.23;;;12.00;;
55573;SDS011;57533;39.460;-0.372;2022-10-31T03:47:35;21.63;;;13.70;;
55573;SDS011;57533;39.460;-0.372;2022-10-31T03:50:02;22.20;;;12.95;;
55573;SDS011;57533;39.460;-0.372;2022-10-31T03:52:39;22.13;;;12.48;;
55573;SDS011;57533;39.460;-0.372;2022-10-31T03:55:10;14.95;;;12.43;;
55573;SDS011;57533;39.460;-0.372;2022-10-31T03:57:45;20.70;;;12.23;;
55573;SDS011;57533;39.460;-0.372;2022-10-31T04:00:13;21.90;;;12.27;;
55573;SDS011;57533;39.460;-0.372;2022-10-31T04:02:45;20.85;;;12.57;;
55573;SDS011;57533;39.460;-0.372;2022-10-31T04:05:11;23.67;;;12.15;;
55573;SDS011;57533;39.460;-0.372;2022-10-31T04:07:38;16.98;;;12.73;;
55573;SDS011;57533;39.460;-0.372;2022-10-31T04:10:07;21.13;;;12.57;;
55573;SDS011;57533;39.460;-0.372;2022-10-31T04:12:34;23.10;;;12.05;;
55573;SDS011;57533;39.460;-0.372;2022-10-31T04:15:00;20.23;;;11.00;;
55573;SDS011;57533;39.460;-0.372;2022-10-31T04:17:27;16.95;;;10.77;;
55573;SDS011;57533;39.460;-0.372;2022-10-31T04:19:54;15.70;;;11.73;;
55573;SDS011;57533;39.460;-0.372;2022-10-31T04:22:19;16.98;;;10.60;;
55573;SDS011;57533;39.460;-0.372;2022-10-31T04:24:45;17.90;;;11.90;;
55573;SDS011;57533;39.460;-0.372;2022-10-31T04:27:10;20.92;;;11.05;;
55573;SDS011;57533;39.460;-0.372;2022-10-31T04:29:35;16.73;;;11.23;;
55573;SDS011;57533;39.460;-0.372;2022-10-31T04:32:01;15.70;;;11.02;;
55573;SDS011;57533;39.460;-0.372;2022-10-31T04:34:26;19.02;;;12.07;;
55573;SDS011;57533;39.460;-0.372;2022-10-31T04:36:52;19.02;;;10.95;;
55573;SDS011;57533;39.460;-0.372;2022-10-31T04:39:17;18.83;;;11.02;;
55573;SDS011;57533;39.460;-0.372;2022-10-31T04:41:42;18.83;;;10.55;;
55573;SDS011;57533;39.460;-0.372;2022-10-31T04:44:07;19.40;;;11.75;;
55573;SDS011;57533;39.460;-0.372;2022-10-31T04:46:33;19.80;;;10.55;;
55573;SDS011;57533;39.460;-0.372;2022-10-31T04:48:58;20.27;;;10.82;;
55573;SDS011;57533;39.460;-0.372;2022-10-31T04:51:23;18.15;;;10.45;;
55573;SDS011;57533;39.460;-0.372;2022-10-31T04:53:49;19.90;;;11.00;;
55573;SDS011;57533;39.460;-0.372;2022-10-31T04:56:14;17.58;;;10.80;;
55573;SDS011;57533;39.460;-0.372;2022-10-31T04:58:39;16.27;;;10.90;;
55573;SDS011;57533;39.460;-0.372;2022-10-31T05:01:05;18.90;;;11.95;;
55573;SDS011;57533;39.460;-0.372;2022-10-31T05:03:30;16.33;;;11.82;;
55573;SDS011;57533;39.460;-0.372;2022-10-31T05:05:55;20.20;;;11.00;;
55573;SDS011;57533;39.460;-0.372;2022-10-31T05:08:21;21.55;;;11.45;;
55573;SDS011;57533;39.460;-0.372;2022-10-31T05:10:46;16.27;;;11.75;;
55573;SDS011;57533;39.460;-0.372;2022-10-31T05:13:11;16.67;;;11.65;;
55573;SDS011;57533;39.460;-0.372;2022-10-31T05:15:37;25.75;;;12.65;;
55573;SDS011;57533;39.460;-0.372;2022-10-31T05:18:02;19.17;;;12.48;;
55573;SDS011;57533;39.460;-0.372;2022-10-31T05:20:28;18.25;;;11.93;;
55573;SDS011;57533;39.460;-0.372;2022-10-31T05:22:55;18.00;;;12.48;;
55573;SDS011;57533;39.460;-0.372;2022-10-31T05:25:21;19.05;;;12.05;;
55573;SDS011;57533;39.460;-0.372;2022-10-31T05:27:47;17.60;;;11.93;;
55573;SDS011;57533;39.460;-0.372;2022-10-31T05:30:14;21.00;;;12.10;;
55573;SDS011;57533;39.460;-0.372;2022-10-31T05:32:40;20.92;;;12.27;;
55573;SDS011;57533;39.460;-0.372;2022-10-31T05:35:07;17.60;;;11.43;;
55573;SDS011;57533;39.460;-0.372;2022-10-31T05:37:34;19.63;;;12.60;;
55573;SDS011;57533;39.460;-0.372;2022-10-31T05:39:59;16.20;;;11.55;;
55573;SDS011;57533;39.460;-0.372;2022-10-31T05:42:24;17.95;;;11.68;;
55573;SDS011;57533;39.460;-0.372;2022-10-31T05:44:50;18.67;;;12.10;;
55573;SDS011;57533;39.460;-0.372;2022-10-31T05:47:15;21.70;;;12.73;;
55573;SDS011;57533;39.460;-0.372;2022-10-31T05:49:40;22.50;;;11.93;;
55573;SDS011;57533;39.460;-0.372;2022-10-31T05:52:06;24.70;;;11.18;;
55573;SDS011;57533;39.460;-0.372;2022-10-31T05:54:31;27.63;;;12.15;;
55573;SDS011;57533;39.460;-0.372;2022-10-31T05:56:56;17.63;;;12.13;;
55573;SDS011;57533;39.460;-0.372;2022-10-31T05:59:22;18.00;;;12.05;;
55573;SDS011;57533;39.460;-0.372;2022-10-31T06:01:47;16.70;;;12.38;;
55573;SDS011;57533;39.460;-0.372;2022-10-31T06:04:12;14.45;;;10.10;;
55573;SDS011;57533;39.460;-0.372;2022-10-31T06:06:38;23.10;;;11.48;;
55573;SDS011;57533;39.460;-0.372;2022-10-31T06:09:03;19.33;;;12.35;;
55573;SDS011;57533;39.460;-0.372;2022-10-31T06:11:28;20.35;;;11.82;;
55573;SDS011;57533;39.460;-0.372;2022-10-31T06:13:54;20.45;;;12.43;;
55573;SDS011;57533;39.460;-0.372;2022-10-31T06:16:19;19.27;;;11.60;;
55573;SDS011;57533;39.460;-0.372;2022-10-31T06:18:45;22.83;;;12.63;;
55573;SDS011;57533;39.460;-0.372;2022-10-31T06:21:10;21.65;;;12.15;;
55573;SDS011;57533;39.460;-0.372;2022-10-31T06:23:36;21.83;;;11.77;;
55573;SDS011;57533;39.460;-0.372;2022-10-31T06:26:01;18.73;;;11.80;;
55573;SDS011;57533;39.460;-0.372;2022-10-31T06:28:27;23.02;;;12.30;;
55573;SDS011;57533;39.460;-0.372;2022-10-31T06:30:52;14.35;;;11.88;;
55573;SDS011;57533;39.460;-0.372;2022-10-31T06:33:17;22.35;;;12.68;;
55573;SDS011;57533;39.460;-0.372;2022-10-31T06:35:46;19.85;;;12.95;;
55573;SDS011;57533;39.460;-0.372;2022-10-31T06:38:12;19.92;;;11.25;;
55573;SDS011;57533;39.460;-0.372;2022-10-31T06:40:37;18.70;;;12.65;;
55573;SDS011;57533;39.460;-0.372;2022-10-31T06:43:03;23.13;;;12.10;;
55573;SDS011;57533;39.460;-0.372;2022-10-31T06:45:28;22.80;;;11.38;;
55573;SDS011;57533;39.460;-0.372;2022-10-31T06:47:53;16.35;;;11.60;;
55573;SDS011;57533;39.460;-0.372;2022-10-31T06:50:20;23.73;;;11.63;;
55573;SDS011;57533;39.460;-0.372;2022-10-31T06:52:52;16.65;;;11.63;;
55573;SDS011;57533;39.460;-0.372;2022-10-31T06:55:17;18.77;;;12.23;;
55573;SDS011;57533;39.460;-0.372;2022-10-31T06:57:48;25.88;;;12.23;;
55573;SDS011;57533;39.460;-0.372;2022-10-31T07:00:14;23.98;;;12.88;;
55573;SDS011;57533;39.460;-0.372;2022-10-31T07:02:39;20.45;;;11.80;;
55573;SDS011;57533;39.460;-0.372;2022-10-31T07:05:05;16.52;;;12.38;;
55573;SDS011;57533;39.460;-0.372;2022-10-31T07:07:30;20.90;;;12.30;;
55573;SDS011;57533;39.460;-0.372;2022-10-31T07:09:55;22.08;;;12.43;;
55573;SDS011;57533;39.460;-0.372;2022-10-31T07:12:20;19.98;;;11.73;;
55573;SDS011;57533;39.460;-0.372;2022-10-31T07:14:46;22.35;;;12.57;;
55573;SDS011;57533;39.460;-0.372;2022-10-31T07:17:11;32.05;;;12.98;;
55573;SDS011;57533;39.460;-0.372;2022-10-31T07:19:36;21.67;;;12.23;;
55573;SDS011;57533;39.460;-0.372;2022-10-31T07:22:02;18.40;;;12.02;;
55573;SDS011;57533;39.460;-0.372;2022-10-31T07:24:27;20.17;;;12.63;;
55573;SDS011;57533;39.460;-0.372;2022-10-31T07:26:52;19.77;;;12.27;;
55573;SDS011;57533;39.460;-0.372;2022-10-31T07:29:18;21.90;;;13.13;;
55573;SDS011;57533;39.460;-0.372;2022-10-31T07:31:45;24.05;;;13.85;;
55573;SDS011;57533;39.460;-0.372;2022-10-31T07:34:10;21.88;;;12.63;;
55573;SDS011;57533;39.460;-0.372;2022-10-31T07:36:35;22.63;;;13.15;;
55573;SDS011;57533;39.460;-0.372;2022-10-31T07:39:01;22.33;;;12.82;;
55573;SDS011;57533;39.460;-0.372;2022-10-31T07:41:27;23.95;;;14.43;;
55573;SDS011;57533;39.460;-0.372;2022-10-31T07:43:52;24.08;;;13.38;;
55573;SDS011;57533;39.460;-0.372;2022-10-31T07:46:17;22.40;;;13.18;;
55573;SDS011;57533;39.460;-0.372;2022-10-31T07:48:43;24.00;;;14.50;;
55573;SDS011;57533;39.460;-0.372;2022-10-31T07:51:08;25.40;;;13.90;;
55573;SDS011;57533;39.460;-0.372;2022-10-31T07:53:33;23.45;;;14.38;;
55573;SDS011;57533;39.460;-0.372;2022-10-31T07:55:59;25.48;;;14.13;;
55573;SDS011;57533;39.460;-0.372;2022-10-31T07:58:24;25.30;;;13.75;;
55573;SDS011;57533;39.460;-0.372;2022-10-31T08:00:50;26.75;;;13.43;;
55573;SDS011;57533;39.460;-0.372;2022-10-31T08:03:16;27.00;;;14.13;;
55573;SDS011;57533;39.460;-0.372;2022-10-31T08:05:42;28.35;;;13.98;;
55573;SDS011;57533;39.460;-0.372;2022-10-31T08:08:09;28.30;;;15.63;;
55573;SDS011;57533;39.460;-0.372;2022-10-31T08:10:35;22.98;;;14.45;;
55573;SDS011;57533;39.460;-0.372;2022-10-31T08:13:02;21.00;;;13.02;;
55573;SDS011;57533;39.460;-0.372;2022-10-31T08:15:28;31.83;;;14.13;;
55573;SDS011;57533;39.460;-0.372;2022-10-31T08:17:53;30.83;;;14.68;;
55573;SDS011;57533;39.460;-0.372;2022-10-31T08:20:19;25.08;;;13.50;;
55573;SDS011;57533;39.460;-0.372;2022-10-31T08:23:00;27.10;;;13.30;;
55573;SDS011;57533;39.460;-0.372;2022-10-31T08:25:26;23.25;;;13.13;;
55573;SDS011;57533;39.460;-0.372;2022-10-31T08:27:53;25.63;;;13.25;;
55573;SDS011;57533;39.460;-0.372;2022-10-31T08:30:19;27.33;;;13.30;;
55573;SDS011;57533;39.460;-0.372;2022-10-31T08:32:44;33.00;;;14.23;;
55573;SDS011;57533;39.460;-0.372;2022-10-31T08:35:10;24.45;;;12.85;;
55573;SDS011;57533;39.460;-0.372;2022-10-31T08:37:35;24.92;;;12.75;;
55573;SDS011;57533;39.460;-0.372;2022-10-31T08:40:00;21.02;;;12.65;;
55573;SDS011;57533;39.460;-0.372;2022-10-31T08:42:26;22.17;;;12.73;;
55573;SDS011;57533;39.460;-0.372;2022-10-31T08:44:51;23.77;;;13.20;;
55573;SDS011;57533;39.460;-0.372;2022-10-31T08:47:16;20.70;;;13.63;;
55573;SDS011;57533;39.460;-0.372;2022-10-31T08:49:42;30.10;;;13.95;;
55573;SDS011;57533;39.460;-0.372;2022-10-31T08:52:07;26.73;;;13.70;;
55573;SDS011;57533;39.460;-0.372;2022-10-31T08:54:32;24.10;;;13.50;;
55573;SDS011;57533;39.460;-0.372;2022-10-31T08:56:58;25.65;;;13.93;;
55573;SDS011;57533;39.460;-0.372;2022-10-31T08:59:23;25.23;;;13.93;;
55573;SDS011;57533;39.460;-0.372;2022-10-31T09:01:48;24.90;;;14.38;;
55573;SDS011;57533;39.460;-0.372;2022-10-31T09:04:14;19.88;;;14.63;;
55573;SDS011;57533;39.460;-0.372;2022-10-31T09:06:39;23.92;;;14.27;;
55573;SDS011;57533;39.460;-0.372;2022-10-31T09:09:04;21.20;;;13.68;;
55573;SDS011;57533;39.460;-0.372;2022-10-31T09:11:30;21.60;;;13.90;;
55573;SDS011;57533;39.460;-0.372;2022-10-31T09:13:55;21.33;;;13.23;;
55573;SDS011;57533;39.460;-0.372;2022-10-31T09:16:20;30.25;;;14.82;;
55573;SDS011;57533;39.460;-0.372;2022-10-31T09:18:46;24.40;;;11.88;;
55573;SDS011;57533;39.460;-0.372;2022-10-31T09:21:11;25.35;;;14.30;;
55573;SDS011;57533;39.460;-0.372;2022-10-31T09:23:37;25.80;;;13.65;;
55573;SDS011;57533;39.460;-0.372;2022-10-31T09:26:03;18.98;;;13.02;;
55573;SDS011;57533;39.460;-0.372;2022-10-31T09:28:28;21.58;;;12.45;;
55573;SDS011;57533;39.460;-0.372;2022-10-31T09:30:54;22.48;;;12.45;;
55573;SDS011;57533;39.460;-0.372;2022-10-31T09:33:19;31.05;;;13.18;;
55573;SDS011;57533;39.460;-0.372;2022-10-31T09:35:45;24.13;;;10.70;;
55573;SDS011;57533;39.460;-0.372;2022-10-31T09:38:11;17.27;;;10.35;;
55573;SDS011;57533;39.460;-0.372;2022-10-31T09:40:52;20.52;;;9.82;;
55573;SDS011;57533;39.460;-0.372;2022-10-31T09:50:59;21.98;;;11.48;;
55573;SDS011;57533;39.460;-0.372;2022-10-31T09:55:53;18.58;;;10.82;;
55573;SDS011;57533;39.460;-0.372;2022-10-31T09:58:20;20.48;;;11.18;;
55573;SDS011;57533;39.460;-0.372;2022-10-31T10:00:48;17.60;;;10.18;;
55573;SDS011;57533;39.460;-0.372;2022-10-31T10:05:40;20.92;;;9.88;;
55573;SDS011;57533;39.460;-0.372;2022-10-31T10:08:22;24.35;;;11.30;;
55573;SDS011;57533;39.460;-0.372;2022-10-31T10:18:21;25.30;;;9.90;;
55573;SDS011;57533;39.460;-0.372;2022-10-31T10:20:54;25.77;;;11.07;;
55573;SDS011;57533;39.460;-0.372;2022-10-31T10:25:52;14.70;;;8.93;;
55573;SDS011;57533;39.460;-0.372;2022-10-31T10:28:21;22.45;;;9.77;;
55573;SDS011;57533;39.460;-0.372;2022-10-31T10:30:50;19.42;;;11.30;;
55573;SDS011;57533;39.460;-0.372;2022-10-31T10:33:35;16.30;;;9.05;;
55573;SDS011;57533;39.460;-0.372;2022-10-31T10:36:10;15.35;;;9.38;;
55573;SDS011;57533;39.460;-0.372;2022-10-31T10:41:07;17.27;;;8.93;;
55573;SDS011;57533;39.460;-0.372;2022-10-31T10:43:36;21.25;;;9.75;;
55573;SDS011;57533;39.460;-0.372;2022-10-31T10:51:21;17.58;;;10.23;;
55573;SDS011;57533;39.460;-0.372;2022-10-31T11:01:38;14.07;;;8.70;;
55573;SDS011;57533;39.460;-0.372;2022-10-31T11:04:07;15.23;;;8.13;;
55573;SDS011;57533;39.460;-0.372;2022-10-31T11:06:36;18.95;;;8.80;;
55573;SDS011;57533;39.460;-0.372;2022-10-31T11:09:08;12.77;;;8.07;;
55573;SDS011;57533;39.460;-0.372;2022-10-31T11:11:33;13.65;;;8.23;;
55573;SDS011;57533;39.460;-0.372;2022-10-31T11:14:06;18.25;;;8.65;;
55573;SDS011;57533;39.460;-0.372;2022-10-31T11:16:37;19.83;;;10.43;;
55573;SDS011;57533;39.460;-0.372;2022-10-31T11:21:34;12.48;;;8.32;;
55573;SDS011;57533;39.460;-0.372;2022-10-31T11:24:04;14.50;;;9.05;;
55573;SDS011;57533;39.460;-0.372;2022-10-31T11:26:37;15.43;;;8.30;;
55573;SDS011;57533;39.460;-0.372;2022-10-31T11:29:03;15.68;;;8.68;;
55573;SDS011;57533;39.460;-0.372;2022-10-31T11:31:29;11.98;;;8.02;;
55573;SDS011;57533;39.460;-0.372;2022-10-31T11:34:02;16.48;;;8.15;;
55573;SDS011;57533;39.460;-0.372;2022-10-31T11:36:35;21.98;;;9.93;;
55573;SDS011;57533;39.460;-0.372;2022-10-31T11:39:03;17.05;;;8.23;;
55573;SDS011;57533;39.460;-0.372;2022-10-31T11:41:30;15.95;;;8.43;;
55573;SDS011;57533;39.460;-0.372;2022-10-31T11:43:58;11.48;;;7.57;;
55573;SDS011;57533;39.460;-0.372;2022-10-31T11:46:35;15.27;;;7.82;;
55573;SDS011;57533;39.460;-0.372;2022-10-31T11:49:02;18.52;;;8.35;;
55573;SDS011;57533;39.460;-0.372;2022-10-31T11:51:28;15.25;;;8.35;;
55573;SDS011;57533;39.460;-0.372;2022-10-31T11:53:55;14.05;;;8.30;;
55573;SDS011;57533;39.460;-0.372;2022-10-31T11:56:22;18.00;;;7.88;;
55573;SDS011;57533;39.460;-0.372;2022-10-31T11:59:02;14.45;;;8.45;;
55573;SDS011;57533;39.460;-0.372;2022-10-31T12:01:28;10.73;;;7.63;;
55573;SDS011;57533;39.460;-0.372;2022-10-31T12:03:58;13.93;;;8.00;;
55573;SDS011;57533;39.460;-0.372;2022-10-31T12:06:29;11.27;;;8.07;;
55573;SDS011;57533;39.460;-0.372;2022-10-31T12:08:59;17.13;;;8.07;;
55573;SDS011;57533;39.460;-0.372;2022-10-31T12:16:39;14.70;;;8.10;;
55573;SDS011;57533;39.460;-0.372;2022-10-31T12:40:03;15.52;;;9.48;;
55573;SDS011;57533;39.460;-0.372;2022-10-31T12:57:36;15.25;;;7.60;;
55573;SDS011;57533;39.460;-0.372;2022-10-31T13:00:05;14.00;;;8.02;;
55573;SDS011;57533;39.460;-0.372;2022-10-31T13:05:02;14.00;;;8.52;;
55573;SDS011;57533;39.460;-0.372;2022-10-31T13:07:39;18.25;;;8.68;;
55573;SDS011;57533;39.460;-0.372;2022-10-31T13:10:43;19.65;;;7.72;;
55573;SDS011;57533;39.460;-0.372;2022-10-31T13:13:23;11.98;;;7.80;;
55573;SDS011;57533;39.460;-0.372;2022-10-31T13:16:32;14.13;;;8.55;;
55573;SDS011;57533;39.460;-0.372;2022-10-31T13:18:45;13.90;;;8.23;;
55573;SDS011;57533;39.460;-0.372;2022-10-31T13:21:18;13.52;;;7.43;;
55573;SDS011;57533;39.460;-0.372;2022-10-31T13:23:44;9.70;;;7.47;;
55573;SDS011;57533;39.460;-0.372;2022-10-31T13:26:14;18.08;;;8.77;;
55573;SDS011;57533;39.460;-0.372;2022-10-31T13:28:46;15.10;;;7.82;;
55573;SDS011;57533;39.460;-0.372;2022-10-31T13:31:12;13.65;;;8.23;;
55573;SDS011;57533;39.460;-0.372;2022-10-31T13:46:50;20.52;;;9.23;;
55573;SDS011;57533;39.460;-0.372;2022-10-31T13:52:04;17.00;;;8.02;;
55573;SDS011;57533;39.460;-0.372;2022-10-31T13:54:33;17.38;;;8.40;;
55573;SDS011;57533;39.460;-0.372;2022-10-31T13:56:58;12.02;;;8.02;;
55573;SDS011;57533;39.460;-0.372;2022-10-31T13:59:27;10.93;;;8.60;;
55573;SDS011;57533;39.460;-0.372;2022-10-31T14:01:55;18.25;;;8.40;;
55573;SDS011;57533;39.460;-0.372;2022-10-31T14:04:32;13.00;;;8.30;;
55573;SDS011;57533;39.460;-0.372;2022-10-31T14:07:07;16.00;;;7.90;;
55573;SDS011;57533;39.460;-0.372;2022-10-31T14:11:59;17.33;;;8.43;;
55573;SDS011;57533;39.460;-0.372;2022-10-31T14:14:28;17.40;;;8.95;;
55573;SDS011;57533;39.460;-0.372;2022-10-31T14:16:55;17.23;;;9.30;;
55573;SDS011;57533;39.460;-0.372;2022-10-31T14:19:21;13.20;;;8.55;;
55573;SDS011;57533;39.460;-0.372;2022-10-31T14:21:47;15.52;;;8.90;;
55573;SDS011;57533;39.460;-0.372;2022-10-31T14:24:35;16.40;;;8.63;;
55573;SDS011;57533;39.460;-0.372;2022-10-31T14:29:31;13.80;;;8.13;;
55573;SDS011;57533;39.460;-0.372;2022-10-31T14:31:58;14.63;;;9.55;;
55573;SDS011;57533;39.460;-0.372;2022-10-31T14:34:28;11.75;;;8.13;;
55573;SDS011;57533;39.460;-0.372;2022-10-31T14:37:02;17.70;;;9.00;;
55573;SDS011;57533;39.460;-0.372;2022-10-31T14:47:59;14.30;;;7.70;;
55573;SDS011;57533;39.460;-0.372;2022-10-31T14:52:35;19.38;;;9.10;;
55573;SDS011;57533;39.460;-0.372;2022-10-31T14:55:00;15.27;;;9.18;;
55573;SDS011;57533;39.460;-0.372;2022-10-31T14:57:31;16.10;;;9.13;;
55573;SDS011;57533;39.460;-0.372;2022-10-31T15:00:01;15.80;;;9.30;;
55573;SDS011;57533;39.460;-0.372;2022-10-31T15:04:54;13.23;;;9.10;;
55573;SDS011;57533;39.460;-0.372;2022-10-31T15:07:21;13.50;;;8.45;;
55573;SDS011;57533;39.460;-0.372;2022-10-31T15:12:26;17.98;;;9.05;;
55573;SDS011;57533;39.460;-0.372;2022-10-31T15:14:52;12.35;;;8.48;;
55573;SDS011;57533;39.460;-0.372;2022-10-31T15:17:17;13.73;;;9.10;;
55573;SDS011;57533;39.460;-0.372;2022-10-31T15:19:43;18.13;;;9.05;;
55573;SDS011;57533;39.460;-0.372;2022-10-31T15:22:10;14.20;;;8.88;;
55573;SDS011;57533;39.460;-0.372;2022-10-31T15:24:38;16.40;;;8.80;;
55573;SDS011;57533;39.460;-0.372;2022-10-31T15:27:04;13.75;;;8.43;;
55573;SDS011;57533;39.460;-0.372;2022-10-31T15:29:30;21.42;;;10.13;;
55573;SDS011;57533;39.460;-0.372;2022-10-31T15:32:18;14.32;;;10.70;;
55573;SDS011;57533;39.460;-0.372;2022-10-31T15:34:45;17.15;;;9.82;;
55573;SDS011;57533;39.460;-0.372;2022-10-31T15:37:14;15.27;;;8.93;;
55573;SDS011;57533;39.460;-0.372;2022-10-31T15:39:40;16.02;;;9.82;;
55573;SDS011;57533;39.460;-0.372;2022-10-31T15:42:22;14.20;;;9.05;;
55573;SDS011;57533;39.460;-0.372;2022-10-31T15:44:50;13.60;;;8.98;;
55573;SDS011;57533;39.460;-0.372;2022-10-31T15:47:17;13.32;;;9.43;;
55573;SDS011;57533;39.460;-0.372;2022-10-31T15:50:04;16.30;;;9.18;;
55573;SDS011;57533;39.460;-0.372;2022-10-31T15:55:14;18.20;;;9.93;;
55573;SDS011;57533;39.460;-0.372;2022-10-31T15:57:45;19.83;;;10.13;;
55573;SDS011;57533;39.460;-0.372;2022-10-31T16:05:38;20.38;;;10.52;;
55573;SDS011;57533;39.460;-0.372;2022-10-31T16:08:04;19.52;;;10.07;;
55573;SDS011;57533;39.460;-0.372;2022-10-31T16:10:32;20.25;;;11.18;;
55573;SDS011;57533;39.460;-0.372;2022-10-31T16:12:57;20.33;;;10.43;;
55573;SDS011;57533;39.460;-0.372;2022-10-31T16:15:22;20.52;;;10.63;;
55573;SDS011;57533;39.460;-0.372;2022-10-31T16:17:49;21.92;;;11.15;;
55573;SDS011;57533;39.460;-0.372;2022-10-31T16:20:18;19.52;;;10.60;;
55573;SDS011;57533;39.460;-0.372;2022-10-31T16:22:46;17.08;;;10.93;;
55573;SDS011;57533;39.460;-0.372;2022-10-31T16:25:17;21.08;;;10.88;;
55573;SDS011;57533;39.460;-0.372;2022-10-31T16:27:51;19.55;;;11.90;;
55573;SDS011;57533;39.460;-0.372;2022-10-31T16:33:04;19.63;;;12.15;;
55573;SDS011;57533;39.460;-0.372;2022-10-31T16:35:37;19.50;;;12.65;;
55573;SDS011;57533;39.460;-0.372;2022-10-31T16:38:03;25.58;;;12.20;;
55573;SDS011;57533;39.460;-0.372;2022-10-31T16:40:28;24.17;;;12.77;;
55573;SDS011;57533;39.460;-0.372;2022-10-31T16:42:55;25.35;;;13.93;;
55573;SDS011;57533;39.460;-0.372;2022-10-31T16:45:22;21.30;;;11.90;;
55573;SDS011;57533;39.460;-0.372;2022-10-31T16:47:48;20.13;;;12.68;;
55573;SDS011;57533;39.460;-0.372;2022-10-31T16:50:16;22.52;;;12.05;;
55573;SDS011;57533;39.460;-0.372;2022-10-31T16:52:41;19.90;;;12.18;;
55573;SDS011;57533;39.460;-0.372;2022-10-31T16:55:10;21.20;;;12.25;;
55573;SDS011;57533;39.460;-0.372;2022-10-31T16:57:35;16.23;;;10.90;;
55573;SDS011;57533;39.460;-0.372;2022-10-31T17:00:01;17.02;;;12.40;;